aviador You're here:

BKPR Decoded Metar

PRISHTINA in SERBIA
Report Time2017-11-25 05:30:00
UTC Time2017-11-25 05:36:25
Flight Rules lifr LIFR
WindCalm
Visibility0150 m
Phenomena:Freezing Fog
Clouds:Broken 002 Hf
Expected CloudBase > 400 ft AGL from Temp-Dew spread
Ceiling200 ft
Temp-3°C (ISA -14)
Dew Point-4°C (93% RH)
AAT-5.5°C
QNH1021 hPa
Density Alt-56 ft
Elevation1,890 ft
Report Wrong Elevation
Raw Report
BKPR 250530Z 00000KT 0150 R17/0500 FZFG BKN002 M03/M04 Q1021 NOSIG
RMK 17010095=

Extra information for BKPR:More info

Metar Taf Metar & Taf Last 4 Metars F.Rules Stats Wind Profile Meteogram Temp Stats Airport Information Weather charts Add Link Nearby VenuesMetar ALERT Operation Metar Decoded Social comments